Time;durP1;ratioP1;P1;durP2;ratioP2;P2;SDS_P1;SDS_P2;PMS_P1;PMS_P2;Temp;Humidity;BMP_temperature;BMP_pressure;BME280_temperature;BME280_humidity;BME280_pressure;Samples;Min_cycle;Max_cycle;Signal;HPM_P1;HPM_P2
2022/01/17 01:44:07;;;;;;;9.13;4.72;;;;;;;2.61;72.88;100108.56;6245919;23;20051;-94
2022/01/17 02:16:27;;;;;;;10.38;4.40;;;;;;;3.52;71.56;100174.94;6199646;23;20114;-90
2022/01/17 02:20:42;;;;;;;7.57;4.18;;;;;;;2.94;71.47;100086.25;6014268;23;20034;-92
2022/01/17 02:29:05;;;;;;;9.20;4.40;;;;;;;3.46;71.24;100155.38;6130212;23;20030;-89
2022/01/17 02:32:50;;;;;;;10.00;4.68;;;;;;;3.08;71.42;100075.00;6178173;23;20044;-90
2022/01/17 02:36:30;;;;;;;8.63;4.43;;;;;;;3.52;71.02;100125.34;6219136;23;20020;-92
2022/01/17 02:42:35;;;;;;;9.52;4.00;;;;;;;3.13;70.45;100069.31;6222130;23;20357;-92
2022/01/17 02:48:39;;;;;;;;;;;;;;;;;;;;;
2022/01/17 02:52:05;;;;;;;10.57;4.47;;;;;;;2.83;70.79;100032.09;6248173;23;20031;-93
2022/01/17 02:58:37;;;;;;;8.48;4.85;;;;;;;3.47;71.00;100131.88;6248492;23;20016;-93
2022/01/17 03:27:05;;;;;;;9.13;4.45;;;;;;;3.51;69.82;100098.38;6210416;22;20051;-92
2022/01/17 03:33:52;;;;;;;9.00;4.57;;;;;;;3.48;69.61;100075.56;6192501;23;20024;-93
2022/01/17 03:39:43;;;;;;;9.43;4.60;;;;;;;3.48;70.44;100085.66;6257660;23;20031;-91
2022/01/17 03:42:21;;;;;;;9.95;4.68;;;;;;;3.45;70.08;100088.09;6248465;23;20020;-92
2022/01/17 03:45:27;;;;;;;7.63;4.10;;;;;;;3.40;70.39;100084.56;6188895;23;20031;-91
2022/01/17 03:48:31;;;;;;;8.48;4.28;;;;;;;3.40;69.83;100076.97;6216825;23;20031;-92
2022/01/17 03:51:03;;;;;;;9.07;4.75;;;;;;;3.20;70.56;100046.03;6191510;23;20029;-89
2022/01/17 03:53:48;;;;;;;11.80;4.78;;;;;;;2.92;69.78;99992.09;6227278;23;20040;-91
2022/01/17 03:56:48;;;;;;;;;;;;;;;;;;;;;
2022/01/17 04:00:05;;;;;;;9.07;4.20;;;;;;;3.34;70.54;100074.22;6216758;23;20040;-92
2022/01/17 04:25:04;;;;;;;7.53;4.10;;;;;;;3.32;70.54;100068.28;6146575;23;20049;-88
2022/01/17 04:35:49;;;;;;;11.38;4.63;;;;;;;3.51;69.90;100088.28;6106356;23;20032;-91
2022/01/17 05:11:34;;;;;;;10.40;4.22;;;;;;;3.90;68.40;100071.06;6230209;22;20086;-87
2022/01/17 05:14:10;;;;;;;8.80;4.43;;;;;;;3.89;68.62;100067.66;6193041;23;20048;-91
2022/01/17 05:17:05;;;;;;;10.88;4.70;;;;;;;3.92;68.81;100051.75;6229838;23;20021;-89
2022/01/17 05:19:57;;;;;;;9.30;4.07;;;;;;;3.92;68.40;100064.38;6208031;23;20021;-90
2022/01/17 05:25:29;;;;;;;8.30;4.03;;;;;;;3.93;67.80;100059.41;6190698;23;20021;-90
2022/01/17 05:28:22;;;;;;;9.40;3.50;;;;;;;3.97;68.30;100076.38;6217142;23;20021;-90
2022/01/17 05:31:05;;;;;;;9.63;4.82;;;;;;;3.62;68.08;100030.63;6191329;23;20022;-92
2022/01/17 05:33:38;;;;;;;9.45;4.30;;;;;;;3.81;68.12;100064.06;6217478;23;20017;-92
2022/01/17 05:36:09;;;;;;;7.65;3.58;;;;;;;3.60;68.30;100012.88;6190658;23;20017;-91
2022/01/17 05:38:54;;;;;;;7.63;3.40;;;;;;;4.02;67.72;100086.59;6226469;23;20020;-87
2022/01/17 05:44:47;;;;;;;6.93;3.45;;;;;;;3.47;67.74;99955.28;6244427;22;20024;-87
2022/01/17 05:47:21;;;;;;;5.15;3.05;;;;;;;3.41;68.07;99964.34;6238130;23;20048;-88
2022/01/17 05:49:57;;;;;;;7.75;3.53;;;;;;;3.57;68.23;99982.53;6218226;23;20016;-91
2022/01/17 05:52:34;;;;;;;6.68;3.10;;;;;;;4.01;67.75;100035.25;6189975;23;20020;-89
2022/01/17 05:55:06;;;;;;;6.80;2.95;;;;;;;3.84;67.73;100008.59;6218120;23;20090;-89
2022/01/17 05:57:41;;;;;;;5.90;3.00;;;;;;;3.76;67.86;99994.03;6216532;23;20017;-92
2022/01/17 06:00:31;;;;;;;6.60;3.00;;;;;;;4.10;67.49;100051.50;6216456;23;20027;-92
2022/01/17 06:03:12;;;;;;;6.85;3.20;;;;;;;3.72;67.90;99967.84;6216593;23;20019;-93
2022/01/17 06:06:33;;;;;;;6.85;3.05;;;;;;;3.70;68.66;99963.56;6193808;23;20020;-92
2022/01/17 06:12:48;;;;;;;7.05;3.22;;;;;;;3.46;68.71;99907.28;6192123;23;20020;-92
2022/01/17 06:20:01;;;;;;;8.30;4.00;;;;;;;3.95;69.31;100002.25;6128533;23;20021;-95
2022/01/17 06:34:46;;;;;;;7.00;3.00;;;;;;;3.60;69.61;99952.31;6206770;23;20020;-89
2022/01/17 09:50:58;;;;;;;6.85;2.95;;;;;;;5.05;66.70;99789.56;6226505;22;20031;-91
2022/01/17 10:05:54;;;;;;;6.00;2.60;;;;;;;3.71;66.61;99504.31;6237898;22;20055;-89
2022/01/17 10:08:30;;;;;;;5.68;2.63;;;;;;;5.14;66.73;99759.41;6209629;23;20021;-90
2022/01/17 10:11:22;;;;;;;6.13;2.70;;;;;;;4.51;66.45;99656.84;6202315;23;20052;-89
2022/01/17 10:13:58;;;;;;;5.35;2.63;;;;;;;5.10;66.61;99745.00;6208114;23;20021;-88
2022/01/17 10:19:44;;;;;;;5.90;2.75;;;;;;;5.12;66.69;99771.16;6240981;22;20009;-90
2022/01/17 10:22:54;;;;;;;6.22;2.97;;;;;;;5.11;67.08;99758.50;6214879;23;20067;-87
2022/01/17 10:26:07;;;;;;;6.38;2.67;;;;;;;5.11;67.08;99754.28;6080402;23;20062;-90
2022/01/17 10:40:16;;;;;;;7.10;2.72;;;;;;;4.70;66.53;99669.09;6241809;23;20023;-87
2022/01/17 10:54:38;;;;;;;4.97;2.72;;;;;;;4.81;66.32;99642.34;6231680;23;20368;-85
2022/01/17 10:57:15;;;;;;;5.43;2.58;;;;;;;5.00;66.68;99679.00;6192726;23;20016;-83
2022/01/17 10:59:51;;;;;;;;;;;;;;;5.18;66.86;99699.63;6218103;23;20043;-90
2022/01/17 11:02:38;;;;;;;5.10;2.55;;;;;;;4.63;66.74;99609.13;6217797;23;19969;-88
2022/01/17 11:05:14;;;;;;;6.50;2.95;;;;;;;4.83;66.54;99640.72;6218012;23;20017;-86
2022/01/17 11:08:06;;;;;;;5.18;2.55;;;;;;;4.83;66.53;99635.66;6172636;23;20021;-86
2022/01/17 11:10:54;;;;;;;5.45;2.47;;;;;;;4.69;66.61;99594.06;6141173;23;20058;-87
2022/01/17 11:13:31;;;;;;;4.40;2.30;;;;;;;5.12;67.02;99666.59;6119339;23;20532;-89
2022/01/17 11:16:12;;;;;;;6.05;2.70;;;;;;;4.87;66.34;99626.47;6127945;23;20022;-90
2022/01/17 11:19:20;;;;;;;6.00;2.70;;;;;;;5.36;66.16;99690.72;6136870;23;20014;-86
2022/01/17 11:21:55;;;;;;;6.38;3.05;;;;;;;5.17;66.07;99678.53;6127292;23;20014;-85
2022/01/17 11:24:28;;;;;;;4.85;2.50;;;;;;;5.37;66.67;99702.53;6078086;23;20030;-87
2022/01/17 11:27:03;;;;;;;6.60;3.72;;;;;;;5.40;66.71;99682.38;6103984;23;20030;-94
2022/01/17 11:29:33;;;;;;;5.47;2.83;;;;;;;4.93;66.44;99597.09;6128655;23;20026;-86
2022/01/17 11:32:04;;;;;;;4.65;2.88;;;;;;;4.99;66.55;99614.91;6127213;23;20319;-93
2022/01/17 11:34:35;;;;;;;5.88;3.20;;;;;;;4.86;66.45;99577.56;6127144;23;20061;-88
2022/01/17 11:37:09;;;;;;;6.28;2.45;;;;;;;5.14;66.00;99612.69;6146636;23;20022;-91
2022/01/17 11:40:11;;;;;;;6.35;2.97;;;;;;;4.75;66.39;99546.19;6105372;23;20114;-94
2022/01/17 11:42:48;;;;;;;5.45;2.58;;;;;;;5.23;66.01;99653.34;6166886;23;20084;-91
2022/01/17 11:45:39;;;;;;;5.97;2.88;;;;;;;5.47;66.40;99662.25;6186848;23;20047;-94
2022/01/17 11:48:22;;;;;;;8.25;3.08;;;;;;;5.36;66.31;99660.38;6187268;23;20045;-92
2022/01/17 11:51:12;;;;;;;7.05;2.78;;;;;;;4.95;66.17;99594.59;6187509;23;20051;-93
2022/01/17 11:53:47;;;;;;;;;;;;;;;5.55;65.87;99680.97;6186079;23;20346;-93
2022/01/17 11:56:39;;;;;;;4.43;2.20;;;;;;;5.03;65.87;99586.34;6161273;23;19920;-90
2022/01/17 11:59:43;;;;;;;7.38;2.97;;;;;;;5.45;65.70;99639.44;6186170;23;20017;-91
2022/01/17 12:02:21;;;;;;;16.05;7.32;;;;;;;5.28;65.76;99613.81;6185551;23;20028;-90
2022/01/17 12:05:19;;;;;;;14.90;8.80;;;;;;;5.52;65.95;99655.59;6187540;23;20012;-89
2022/01/17 12:07:55;;;;;;;9.82;3.60;;;;;;;5.54;66.49;99648.91;6185863;23;20024;-90
2022/01/17 12:10:27;;;;;;;9.68;4.30;;;;;;;5.00;66.79;99547.50;6159932;23;20504;-90
2022/01/17 12:13:21;;;;;;;7.07;3.28;;;;;;;5.49;67.37;99626.03;6187610;23;20026;-90
2022/01/17 12:16:06;;;;;;;6.80;2.78;;;;;;;5.42;68.46;99625.03;6185036;23;20073;-90
2022/01/17 12:18:41;;;;;;;4.63;2.75;;;;;;;4.87;68.35;99531.22;6185810;23;20319;-90
2022/01/17 12:21:28;;;;;;;4.90;2.58;;;;;;;5.19;69.33;99574.84;6187278;23;20025;-89
2022/01/17 12:24:31;;;;;;;5.57;2.83;;;;;;;5.36;69.83;99609.75;6185564;23;20024;-90
2022/01/17 12:33:40;;;;;;;6.40;4.38;;;;;;;5.10;70.39;99560.34;6208542;23;20028;-87
2022/01/17 12:36:41;;;;;;;5.72;3.38;;;;;;;4.88;71.26;99517.78;6169596;23;20017;-84
2022/01/17 12:50:07;;;;;;;11.25;5.80;;;;;;;5.09;72.51;99561.16;6259983;22;20111;-84
2022/01/17 12:52:37;;;;;;;11.10;6.30;;;;;;;4.73;72.50;99513.28;6243037;22;20072;-84
2022/01/17 14:23:35;;;;;;;4.88;2.38;;;;;;;5.28;73.50;99469.59;6237896;22;20036;-92
2022/01/17 14:36:22;;;;;;;6.85;3.42;;;;;;;5.27;73.26;99488.16;6257647;23;20030;-90
2022/01/17 14:38:58;;;;;;;5.80;2.83;;;;;;;5.23;73.18;99496.50;6293248;22;20466;-90
2022/01/17 15:04:41;;;;;;;4.68;2.13;;;;;;;4.05;74.52;99349.41;6220488;22;20035;-88
2022/01/17 15:07:16;;;;;;;4.50;2.08;;;;;;;5.15;74.74;99558.78;6169224;23;20030;-89
2022/01/17 15:09:50;;;;;;;5.97;2.40;;;;;;;5.05;74.53;99525.69;6168810;23;20052;-91
2022/01/17 15:12:22;;;;;;;4.97;2.55;;;;;;;5.09;74.55;99538.41;6161867;23;20017;-91
2022/01/17 15:14:59;;;;;;;5.65;2.17;;;;;;;5.06;74.70;99547.63;6160280;23;20068;-90
2022/01/17 15:17:40;;;;;;;5.28;2.30;;;;;;;5.04;74.66;99560.22;6133178;23;20398;-92
2022/01/17 15:20:14;;;;;;;4.78;1.92;;;;;;;5.09;75.16;99583.94;6132751;23;20072;-88
2022/01/17 15:23:05;;;;;;;4.28;2.33;;;;;;;4.92;75.64;99590.31;6169308;23;20025;-89
2022/01/17 15:25:39;;;;;;;5.43;2.72;;;;;;;4.91;75.85;99618.97;6166407;23;20073;-89
2022/01/17 15:28:09;;;;;;;5.13;2.33;;;;;;;5.00;75.82;99643.59;6165511;23;20021;-90
2022/01/17 15:30:54;;;;;;;4.32;2.40;;;;;;;4.63;76.33;99634.41;6160413;23;20021;-91
2022/01/17 15:33:27;;;;;;;6.00;1.95;;;;;;;4.87;77.70;99703.16;6140720;23;20044;-88
2022/01/17 16:07:14;;;;;;;2.35;1.15;;;;;;;3.74;81.23;99856.84;6231134;22;20131;-89
2022/01/17 16:09:50;;;;;;;3.50;1.33;;;;;;;3.69;81.04;99851.69;6222404;23;20444;-92
2022/01/17 16:15:55;;;;;;;2.08;0.90;;;;;;;3.28;80.95;99829.41;6263855;23;20024;-91
2022/01/17 16:30:04;;;;;;;1.90;0.90;;;;;;;3.31;80.30;99827.00;6221267;23;20027;-90
2022/01/17 16:33:12;;;;;;;2.47;1.15;;;;;;;3.40;79.66;99832.31;6210028;23;20111;-93
2022/01/17 16:36:59;;;;;;;2.13;0.80;;;;;;;3.53;79.56;99859.59;6246772;23;20016;-91
2022/01/17 16:40:00;;;;;;;1.80;0.93;;;;;;;3.55;79.39;99857.13;6196640;23;20022;-90
2022/01/17 16:42:37;;;;;;;3.20;1.50;;;;;;;3.30;79.38;99835.34;6250323;23;20039;-91
2022/01/17 16:52:32;;;;;;;1.50;0.70;;;;;;;3.43;78.28;99876.94;6188272;23;20027;-90
2022/01/17 16:55:36;;;;;;;1.85;0.70;;;;;;;3.42;77.24;99883.66;6191425;23;20017;-90
2022/01/17 17:03:25;;;;;;;1.92;1.10;;;;;;;3.46;77.39;99918.22;6217074;23;20020;-92
2022/01/17 17:20:05;;;;;;;2.15;1.17;;;;;;;3.32;77.63;99990.09;6075704;23;20026;-90
2022/01/17 17:27:10;;;;;;;0.95;0.68;;;;;;;3.26;78.65;100000.00;6016029;23;20036;-91
2022/01/17 17:30:25;;;;;;;0.93;0.65;;;;;;;2.81;78.40;99973.22;6172688;23;20099;-91
2022/01/17 17:36:54;;;;;;;3.20;1.42;;;;;;;2.44;78.73;99979.50;6237918;22;20030;-88
2022/01/17 17:39:46;;;;;;;3.42;1.83;;;;;;;2.40;78.46;99992.75;6217313;23;20016;-89
2022/01/17 17:42:36;;;;;;;4.00;1.95;;;;;;;2.44;78.63;100012.22;6224304;23;20040;-85
2022/01/17 17:45:18;;;;;;;2.70;1.35;;;;;;;2.17;78.25;100001.13;6232244;23;20028;-87
2022/01/17 17:47:52;;;;;;;3.67;1.58;;;;;;;1.97;78.45;99992.81;6240940;23;20000;-87
2022/01/17 17:50:24;;;;;;;4.10;1.70;;;;;;;2.23;78.64;100051.69;6236132;23;20004;-88
2022/01/17 17:53:07;;;;;;;5.75;2.53;;;;;;;2.33;79.02;100062.97;6208571;23;20023;-85
2022/01/17 17:55:44;;;;;;;3.97;1.90;;;;;;;2.01;78.51;100046.66;6208694;23;20108;-86
2022/01/17 17:58:19;;;;;;;3.50;1.52;;;;;;;2.11;78.30;100088.16;6190019;23;20017;-88
2022/01/17 18:04:36;;;;;;;4.28;2.30;;;;;;;1.79;78.44;100076.81;6185838;22;20055;-87
2022/01/17 18:07:12;;;;;;;7.22;2.20;;;;;;;1.87;78.52;100116.56;6241721;23;20017;-89
2022/01/17 18:10:07;;;;;;;;;;;;;;;1.79;78.27;100120.44;6240284;23;20043;-88
2022/01/17 18:23:18;;;;;;;4.65;2.53;;;;;;;1.78;78.06;100176.56;6239489;22;20033;-89
2022/01/17 18:26:06;;;;;;;8.60;3.13;;;;;;;1.40;78.66;100117.91;6242590;23;20080;-88
2022/01/17 19:12:41;;;;;;;4.00;1.20;;;;;;;2.50;67.39;100303.75;6208783;22;20031;-81
